createdAt,value
2019-04-20T00:02:04.499Z,12.38
2019-04-20T00:04:33.499Z,12.32
2019-04-20T00:06:59.183Z,12.25
2019-04-20T00:09:33.219Z,12.17
2019-04-20T00:12:10.932Z,12.13
2019-04-20T00:14:35.769Z,12.07
2019-04-20T00:17:03.101Z,12.02
2019-04-20T00:19:40.011Z,11.95
2019-04-20T00:22:08.045Z,11.92
2019-04-20T00:24:42.688Z,11.89
2019-04-20T00:27:37.900Z,11.84
2019-04-20T00:29:58.808Z,11.81
2019-04-20T00:32:23.244Z,11.75
2019-04-20T00:34:45.983Z,11.70
2019-04-20T00:37:17.070Z,11.66
2019-04-20T00:39:44.837Z,11.60
2019-04-20T00:42:16.206Z,11.54
2019-04-20T00:44:45.998Z,11.52
2019-04-20T00:47:29.529Z,11.50
2019-04-20T00:49:57.805Z,11.48
2019-04-20T00:52:30.975Z,11.44
2019-04-20T00:54:45.694Z,11.40
2019-04-20T00:57:24.667Z,11.43
2019-04-20T01:00:04.703Z,11.38
2019-04-20T01:02:29.978Z,11.31
2019-04-20T01:05:06.847Z,11.31
2019-04-20T01:07:33.136Z,11.27
2019-04-20T01:10:08.979Z,11.28
2019-04-20T01:12:40.429Z,11.27
2019-04-20T01:15:16.735Z,11.17
2019-04-20T01:17:41.466Z,11.04
2019-04-20T01:20:11.844Z,10.93
2019-04-20T01:22:50.717Z,10.84
2019-04-20T01:25:18.142Z,10.77
2019-04-20T01:28:03.457Z,10.70
2019-04-20T01:30:21.082Z,10.63
2019-04-20T01:33:00.071Z,10.65
2019-04-20T01:35:31.984Z,10.61
2019-04-20T01:38:00.200Z,10.50
2019-04-20T01:40:16.975Z,10.53
2019-04-20T01:42:46.734Z,10.40
2019-04-20T01:45:24.797Z,10.35
2019-04-20T01:47:51.320Z,10.27
2019-04-20T01:50:24.662Z,10.20
2019-04-20T01:53:01.727Z,10.19
2019-04-20T01:55:43.708Z,10.14
2019-04-20T01:58:30.290Z,10.24
2019-04-20T02:00:44.980Z,10.19
2019-04-20T02:03:36.878Z,10.16
2019-04-20T02:06:09.825Z,10.07
2019-04-20T02:08:35.824Z,9.98
2019-04-20T02:11:07.405Z,9.92
2019-04-20T02:13:43.583Z,9.84
2019-04-20T02:16:15.853Z,9.77
2019-04-20T02:18:51.424Z,9.77
2019-04-20T02:21:25.736Z,9.73
2019-04-20T02:23:46.406Z,9.74
2019-04-20T02:26:07.230Z,9.73
2019-04-20T02:29:00.866Z,9.74
2019-04-20T02:34:17.943Z,9.72
2019-04-20T02:42:05.422Z,9.56
2019-04-20T02:44:35.005Z,9.47
2019-04-20T02:47:06.936Z,9.44
2019-04-20T02:52:04.935Z,9.36
2019-04-20T02:57:07.389Z,9.27
2019-04-20T02:59:54.189Z,9.25
2019-04-20T03:01:51.753Z,9.23
2019-04-20T03:04:04.877Z,9.34
2019-04-20T03:06:53.364Z,9.36
2019-04-20T03:09:33.010Z,9.26
2019-04-20T03:14:22.824Z,9.13
2019-04-20T03:16:55.034Z,9.06
2019-04-20T03:19:25.048Z,9.06
2019-04-20T03:22:05.244Z,9.03
2019-04-20T03:24:37.575Z,8.97
2019-04-20T03:26:59.520Z,8.95
2019-04-20T03:29:45.669Z,8.94
2019-04-20T03:37:20.414Z,8.86
2019-04-20T03:39:40.501Z,8.80
2019-04-20T03:41:58.697Z,8.79
2019-04-20T03:44:30.684Z,8.85
2019-04-20T03:47:02.828Z,8.79
2019-04-20T03:49:55.025Z,8.77
2019-04-20T03:52:28.818Z,8.77
2019-04-20T03:54:54.344Z,8.75
2019-04-20T03:57:35.352Z,8.72
2019-04-20T04:00:21.938Z,8.75
2019-04-20T04:05:23.534Z,8.68
2019-04-20T04:07:45.569Z,8.65
2019-04-20T04:10:23.205Z,8.63
2019-04-20T04:13:14.780Z,8.64
2019-04-20T04:15:50.188Z,8.67
2019-04-20T04:18:25.996Z,8.71
2019-04-20T04:20:54.127Z,8.70
2019-04-20T04:23:38.303Z,8.67
2019-04-20T04:26:10.395Z,8.68
2019-04-20T04:28:37.318Z,8.63
2019-04-20T04:36:10.543Z,8.53
2019-04-20T04:39:01.034Z,8.53
2019-04-20T04:41:20.221Z,8.56
2019-04-20T04:43:40.052Z,8.54
2019-04-20T04:45:55.411Z,8.51
2019-04-20T04:48:31.009Z,8.54
2019-04-20T04:51:02.720Z,8.50
2019-04-20T04:53:39.544Z,8.50
2019-04-20T04:56:03.038Z,8.45
2019-04-20T04:58:25.935Z,8.48
2019-04-20T05:01:01.406Z,8.53
2019-04-20T05:03:44.783Z,8.58
2019-04-20T05:06:13.354Z,8.59
2019-04-20T05:08:36.641Z,8.67
2019-04-20T05:11:00.520Z,8.73
2019-04-20T05:13:36.851Z,8.74
2019-04-20T05:16:13.428Z,8.79
2019-04-20T05:19:10.496Z,8.89
2019-04-20T05:21:30.331Z,8.87
2019-04-20T05:24:04.500Z,8.80
2019-04-20T05:26:36.104Z,8.74
2019-04-20T05:28:58.978Z,8.74
2019-04-20T05:31:23.543Z,8.74
2019-04-20T05:34:15.753Z,8.70
2019-04-20T05:36:41.699Z,8.67
2019-04-20T05:41:41.986Z,8.88
2019-04-20T05:44:08.514Z,8.88
2019-04-20T05:46:56.654Z,8.93
2019-04-20T05:49:27.082Z,8.92
2019-04-20T05:51:54.657Z,8.91
2019-04-20T05:54:25.605Z,8.98
2019-04-20T05:56:53.866Z,9.05
2019-04-20T05:59:19.188Z,9.09
2019-04-20T06:01:59.119Z,9.17
2019-04-20T06:04:44.537Z,9.18
2019-04-20T06:06:55.413Z,9.25
2019-04-20T06:09:28.637Z,9.32
2019-04-20T06:12:14.085Z,9.39
2019-04-20T06:14:20.566Z,9.43
2019-04-20T06:17:02.944Z,9.47
2019-04-20T06:19:35.860Z,9.55
2019-04-20T06:22:24.684Z,9.62
2019-04-20T06:25:02.021Z,9.69
2019-04-20T06:27:34.194Z,9.78
2019-04-20T06:29:55.881Z,9.87
2019-04-20T06:33:12.843Z,9.94
2019-04-20T06:35:59.164Z,10.06
2019-04-20T06:38:29.645Z,10.18
2019-04-20T06:40:53.952Z,10.27
2019-04-20T06:43:06.210Z,10.37
2019-04-20T06:45:44.397Z,10.47
2019-04-20T06:48:20.380Z,10.70
2019-04-20T06:50:41.552Z,11.07
2019-04-20T06:53:20.749Z,11.55
2019-04-20T06:55:49.771Z,12.07
2019-04-20T06:58:36.096Z,12.71
2019-04-20T07:00:46.451Z,13.52
2019-04-20T07:03:30.993Z,14.32
2019-04-20T07:05:55.232Z,15.20
2019-04-20T07:08:33.317Z,15.80
2019-04-20T07:10:58.021Z,16.60
2019-04-20T07:13:14.881Z,17.18
2019-04-20T07:15:46.461Z,17.77
2019-04-20T07:18:31.121Z,18.38
2019-04-20T07:21:35.668Z,19.10
2019-04-20T07:23:48.232Z,19.26
2019-04-20T07:26:23.809Z,19.69
2019-04-20T07:28:52.798Z,20.52
2019-04-20T07:31:18.835Z,21.23
2019-04-20T07:33:52.412Z,21.67
2019-04-20T07:36:30.608Z,22.21
2019-04-20T07:38:57.943Z,22.36
2019-04-20T07:41:33.190Z,22.59
2019-04-20T07:44:03.389Z,22.48
2019-04-20T07:46:35.184Z,22.53
2019-04-20T07:48:54.290Z,23.16
2019-04-20T07:51:12.500Z,23.45
2019-04-20T07:53:58.646Z,24.06
2019-04-20T07:56:34.979Z,24.63
2019-04-20T07:58:44.235Z,24.62
2019-04-20T08:01:43.070Z,25.42
2019-04-20T08:04:09.302Z,25.66
2019-04-20T08:06:37.915Z,26.23
2019-04-20T08:09:18.402Z,26.25
2019-04-20T08:11:56.627Z,26.73
2019-04-20T08:14:24.175Z,25.94
2019-04-20T08:17:09.778Z,26.78
2019-04-20T08:19:23.143Z,27.11
2019-04-20T08:22:02.606Z,27.81
2019-04-20T08:24:21.327Z,27.90
2019-04-20T08:26:45.341Z,28.15
2019-04-20T08:29:23.900Z,28.71
2019-04-20T08:32:08.703Z,29.16
2019-04-20T08:34:44.375Z,29.42
2019-04-20T08:37:11.715Z,29.41
2019-04-20T08:42:18.660Z,30.34
2019-04-20T08:47:29.178Z,30.74
2019-04-20T08:50:13.685Z,30.10
2019-04-20T08:52:58.599Z,30.58
2019-04-20T08:55:04.945Z,30.84
2019-04-20T08:57:20.004Z,30.58
2019-04-20T08:59:52.480Z,30.73
2019-04-20T09:02:23.962Z,31.03
2019-04-20T09:05:00.546Z,31.52
2019-04-20T09:07:28.326Z,31.79
2019-04-20T09:10:21.875Z,31.68
2019-04-20T09:12:40.539Z,32.40
2019-04-20T09:14:57.332Z,32.53
2019-04-20T09:17:35.643Z,32.40
2019-04-20T09:20:07.030Z,33.03
2019-04-20T09:22:40.646Z,31.90
2019-04-20T09:27:40.788Z,32.65
2019-04-20T09:30:21.622Z,33.24
2019-04-20T09:32:56.611Z,33.60
2019-04-20T09:35:26.723Z,33.47
2019-04-20T09:38:00.243Z,34.11
2019-04-20T09:40:30.955Z,33.72
2019-04-20T09:42:53.799Z,34.04
2019-04-20T09:45:35.126Z,34.39
2019-04-20T09:47:56.686Z,33.85
2019-04-20T09:50:52.246Z,33.78
2019-04-20T09:53:16.970Z,34.67
2019-04-20T09:55:46.863Z,35.08
2019-04-20T09:58:13.558Z,34.75
2019-04-20T10:00:54.106Z,35.09
2019-04-20T10:03:12.897Z,34.24
2019-04-20T10:05:47.563Z,34.84
2019-04-20T10:08:15.570Z,35.58
2019-04-20T10:10:47.149Z,35.36
2019-04-20T10:13:17.741Z,35.68
2019-04-20T10:15:47.770Z,35.38
2019-04-20T10:18:19.489Z,34.83
2019-04-20T10:20:49.598Z,34.26
2019-04-20T10:23:18.591Z,33.30
2019-04-20T10:25:48.696Z,31.83
2019-04-20T10:28:17.622Z,31.54
2019-04-20T10:30:46.482Z,30.64
2019-04-20T10:33:15.529Z,30.40
2019-04-20T10:35:45.563Z,29.55
2019-04-20T10:38:15.982Z,29.08
2019-04-20T10:40:55.902Z,28.64
2019-04-20T10:43:16.338Z,28.08
2019-04-20T10:45:45.228Z,26.77
2019-04-20T10:48:15.146Z,26.88
2019-04-20T10:50:45.113Z,26.39
2019-04-20T10:53:14.104Z,26.11
2019-04-20T10:55:43.202Z,26.09
2019-04-20T10:58:13.511Z,25.62
2019-04-20T11:00:46.139Z,25.09
2019-04-20T11:03:17.621Z,24.96
2019-04-20T11:05:47.057Z,24.80
2019-04-20T11:08:16.824Z,24.46
2019-04-20T11:10:55.996Z,24.38
2019-04-20T11:13:17.236Z,24.42
2019-04-20T11:15:46.402Z,24.49
2019-04-20T11:18:15.558Z,24.41
2019-04-20T11:20:45.612Z,24.32
2019-04-20T11:23:14.475Z,24.07
2019-04-20T11:25:44.149Z,24.01
2019-04-20T11:28:14.279Z,23.80
2019-04-20T11:30:46.129Z,23.80
2019-04-20T11:33:16.146Z,23.86
2019-04-20T11:35:46.946Z,23.66
2019-04-20T11:38:17.454Z,23.72
2019-04-20T11:41:02.733Z,23.27
2019-04-20T11:43:19.875Z,23.14
2019-04-20T11:45:48.939Z,23.05
2019-04-20T11:48:19.089Z,22.99
2019-04-20T11:50:49.276Z,23.15
2019-04-20T11:53:19.376Z,22.95
2019-04-20T11:55:52.119Z,22.84
2019-04-20T11:58:21.799Z,23.21
2019-04-20T12:01:01.241Z,23.23
2019-04-20T12:03:31.404Z,23.48
2019-04-20T12:05:57.860Z,23.70
2019-04-20T12:08:25.397Z,23.84
2019-04-20T12:10:58.564Z,23.84
2019-04-20T12:13:24.954Z,23.81
2019-04-20T12:15:53.978Z,24.28
2019-04-20T12:18:23.368Z,24.64
2019-04-20T12:20:52.692Z,24.99
2019-04-20T12:23:22.315Z,25.14
2019-04-20T12:25:52.359Z,24.97
2019-04-20T12:28:21.987Z,25.15
2019-04-20T12:30:51.483Z,25.38
2019-04-20T12:33:20.316Z,25.83
2019-04-20T12:35:50.115Z,25.34
2019-04-20T12:38:19.225Z,25.65
2019-04-20T12:40:48.405Z,25.54
2019-04-20T12:43:17.463Z,25.42
2019-04-20T12:45:47.591Z,25.35
2019-04-20T12:48:17.621Z,25.53
2019-04-20T12:50:47.791Z,25.44
2019-04-20T12:53:17.095Z,25.63
2019-04-20T12:55:46.539Z,25.65
2019-04-20T12:58:16.806Z,25.62
2019-04-20T13:00:50.317Z,25.93
2019-04-20T13:03:19.524Z,25.90
2019-04-20T13:05:49.871Z,26.50
2019-04-20T13:08:29.540Z,26.46
2019-04-20T13:10:52.872Z,26.15
2019-04-20T13:13:40.816Z,26.38
2019-04-20T13:16:12.300Z,26.74
2019-04-20T13:18:43.367Z,26.56
2019-04-20T13:21:13.308Z,26.35
2019-04-20T13:23:42.736Z,26.26
2019-04-20T13:26:13.904Z,26.11
2019-04-20T13:28:43.330Z,26.20
2019-04-20T13:31:13.527Z,25.85
2019-04-20T13:33:43.205Z,25.54
2019-04-20T13:36:14.419Z,25.38
2019-04-20T13:38:44.120Z,25.11
2019-04-20T13:41:13.750Z,24.91
2019-04-20T13:43:43.824Z,24.96
2019-04-20T13:46:15.107Z,24.95
2019-04-20T13:48:46.833Z,25.05
2019-04-20T13:51:16.529Z,25.01
2019-04-20T13:53:48.540Z,24.91
2019-04-20T13:56:19.712Z,24.78
2019-04-20T13:58:50.118Z,24.84
2019-04-20T14:01:30.684Z,25.03
2019-04-20T14:04:10.708Z,25.35
2019-04-20T14:06:39.883Z,25.31
2019-04-20T14:09:09.829Z,25.26
2019-04-20T14:11:39.205Z,25.39
2019-04-20T14:14:08.425Z,25.39
2019-04-20T14:16:37.249Z,25.42
2019-04-20T14:19:07.186Z,25.23
2019-04-20T14:21:36.411Z,25.05
2019-04-20T14:24:07.278Z,25.07
2019-04-20T14:26:39.465Z,24.83
2019-04-20T14:29:12.658Z,24.84
2019-04-20T14:31:41.930Z,24.62
2019-04-20T14:34:10.946Z,24.33
2019-04-20T14:36:41.141Z,24.24
2019-04-20T14:39:10.168Z,24.30
2019-04-20T14:41:40.215Z,24.36
2019-04-20T14:44:09.967Z,24.44
2019-04-20T14:46:39.978Z,24.35
2019-04-20T14:49:08.869Z,24.17
2019-04-20T14:51:37.625Z,24.03
2019-04-20T14:54:07.512Z,23.86
2019-04-20T14:56:37.753Z,23.87
2019-04-20T14:59:19.890Z,23.91
2019-04-20T15:01:50.458Z,24.02
2019-04-20T15:04:24.656Z,24.01
2019-04-20T15:06:52.746Z,23.91
2019-04-20T15:09:21.491Z,23.68
2019-04-20T15:11:50.717Z,23.50
2019-04-20T15:14:22.858Z,23.34
2019-04-20T15:16:54.458Z,23.49
2019-04-20T15:19:39.702Z,23.51
2019-04-20T15:22:27.350Z,23.57
2019-04-20T15:24:56.191Z,23.59
2019-04-20T15:27:24.966Z,23.65
2019-04-20T15:29:54.046Z,23.64
2019-04-20T15:32:23.067Z,23.40
2019-04-20T15:34:53.044Z,23.15
2019-04-20T15:37:23.240Z,23.09
2019-04-20T15:39:52.843Z,23.10
2019-04-20T15:42:21.629Z,23.05
2019-04-20T15:44:51.417Z,22.93
2019-04-20T15:47:20.385Z,22.80
2019-04-20T15:49:49.806Z,22.72
2019-04-20T15:52:24.524Z,22.62
2019-04-20T15:54:49.709Z,22.48
2019-04-20T15:57:23.079Z,22.31
2019-04-20T15:59:49.022Z,22.15
2019-04-20T16:02:25.255Z,21.95
2019-04-20T16:05:12.352Z,22.00
2019-04-20T16:07:48.560Z,21.70
2019-04-20T16:10:14.999Z,21.62
2019-04-20T16:12:44.919Z,21.45
2019-04-20T16:15:13.817Z,21.36
2019-04-20T16:17:47.068Z,21.22
2019-04-20T16:20:20.085Z,21.19
2019-04-20T16:22:44.773Z,21.10
2019-04-20T16:25:15.217Z,20.74
2019-04-20T16:27:45.738Z,20.63
2019-04-20T16:30:17.948Z,20.57
2019-04-20T16:32:47.994Z,20.57
2019-04-20T16:35:18.486Z,20.39
2019-04-20T16:37:48.476Z,20.31
2019-04-20T16:40:17.747Z,20.23
2019-04-20T16:42:46.512Z,20.01
2019-04-20T16:45:17.068Z,19.86
2019-04-20T16:47:46.305Z,19.69
2019-04-20T16:50:15.309Z,19.68
2019-04-20T16:52:44.070Z,19.69
2019-04-20T16:55:13.020Z,19.60
2019-04-20T16:57:43.394Z,19.53
2019-04-20T17:00:13.675Z,19.38
2019-04-20T17:02:42.622Z,19.24
2019-04-20T17:05:11.837Z,19.26
2019-04-20T17:07:42.832Z,19.15
2019-04-20T17:10:13.885Z,19.04
2019-04-20T17:12:43.822Z,18.94
2019-04-20T17:15:13.995Z,18.80
2019-04-20T17:17:43.365Z,18.64
2019-04-20T17:20:13.823Z,18.66
2019-04-20T17:22:44.913Z,18.66
2019-04-20T17:25:16.819Z,18.73
2019-04-20T17:27:49.176Z,18.55
2019-04-20T17:30:26.726Z,18.61
2019-04-20T17:33:08.550Z,18.50
2019-04-20T17:35:47.295Z,18.42
2019-04-20T17:38:08.960Z,18.40
2019-04-20T17:41:01.344Z,18.17
2019-04-20T17:43:19.816Z,17.99
2019-04-20T17:45:50.360Z,17.82
2019-04-20T17:48:29.749Z,17.76
2019-04-20T17:51:04.634Z,17.81
2019-04-20T17:53:29.330Z,17.67
2019-04-20T17:55:50.021Z,17.63
2019-04-20T17:58:24.958Z,17.62
2019-04-20T18:01:08.675Z,17.57
2019-04-20T18:04:11.166Z,17.47
2019-04-20T18:06:32.386Z,17.34
2019-04-20T18:08:58.440Z,17.35
2019-04-20T18:11:20.105Z,17.27
2019-04-20T18:13:47.606Z,17.10
2019-04-20T18:16:45.052Z,17.07
2019-04-20T18:19:10.889Z,16.97
2019-04-20T18:21:39.617Z,16.97
2019-04-20T18:24:15.786Z,17.03
2019-04-20T18:26:52.380Z,16.95
2019-04-20T18:29:30.794Z,16.91
2019-04-20T18:31:45.071Z,16.81
2019-04-20T18:34:18.885Z,16.78
2019-04-20T18:36:48.257Z,16.74
2019-04-20T18:39:22.089Z,16.38
2019-04-20T18:41:53.177Z,16.41
2019-04-20T18:44:22.261Z,16.31
2019-04-20T18:47:12.512Z,16.32
2019-04-20T18:49:35.011Z,16.33
2019-04-20T18:51:49.676Z,16.26
2019-04-20T18:54:22.123Z,16.08
2019-04-20T18:56:52.559Z,16.05
2019-04-20T18:59:23.455Z,15.97
2019-04-20T19:01:50.908Z,15.94
2019-04-20T19:04:19.824Z,15.91
2019-04-20T19:06:49.924Z,15.94
2019-04-20T19:09:26.179Z,15.95
2019-04-20T19:11:56.508Z,15.94
2019-04-20T19:14:32.564Z,15.88
2019-04-20T19:17:09.471Z,15.85
2019-04-20T19:19:37.461Z,15.75
2019-04-20T19:21:59.219Z,15.72
2019-04-20T19:24:32.735Z,15.69
2019-04-20T19:27:03.493Z,15.67
2019-04-20T19:29:35.246Z,15.66
2019-04-20T19:32:19.455Z,15.55
2019-04-20T19:34:47.072Z,15.54
2019-04-20T19:37:15.600Z,15.46
2019-04-20T19:39:53.172Z,15.38
2019-04-20T19:42:27.711Z,15.33
2019-04-20T19:44:53.793Z,15.29
2019-04-20T19:47:28.415Z,15.26
2019-04-20T19:49:56.179Z,15.20
2019-04-20T19:52:40.511Z,15.16
2019-04-20T19:55:05.652Z,14.99
2019-04-20T19:57:32.252Z,14.90
2019-04-20T19:59:49.637Z,14.80
2019-04-20T20:02:16.331Z,14.76
2019-04-20T20:04:50.766Z,14.75
2019-04-20T20:07:21.976Z,14.67
2019-04-20T20:09:53.125Z,14.65
2019-04-20T20:19:12.361Z,14.29
2019-04-20T20:21:48.386Z,14.19
2019-04-20T20:24:04.204Z,14.21
2019-04-20T20:26:38.727Z,14.21
2019-04-20T20:29:14.597Z,14.14
2019-04-20T20:31:55.335Z,14.14
2019-04-20T20:34:15.719Z,14.07
2019-04-20T20:36:43.527Z,14.11
2019-04-20T20:39:15.966Z,13.93
2019-04-20T20:41:49.253Z,13.92
2019-04-20T20:44:24.315Z,13.91
2019-04-20T20:46:55.058Z,13.80
2019-04-20T20:49:31.358Z,13.80
2019-04-20T20:52:02.533Z,13.81
2019-04-20T20:54:28.621Z,13.75
2019-04-20T20:56:49.761Z,13.72
2019-04-20T20:59:26.764Z,13.71
2019-04-20T21:01:52.402Z,13.70
2019-04-20T21:04:15.590Z,13.53
2019-04-20T21:06:44.608Z,13.27
2019-04-20T21:09:14.453Z,13.19
2019-04-20T21:11:44.310Z,13.10
2019-04-20T21:14:19.898Z,13.14
2019-04-20T21:16:53.124Z,13.10
2019-04-20T21:19:29.644Z,13.01
2019-04-20T21:21:54.842Z,12.99
2019-04-20T21:24:31.433Z,12.85
2019-04-20T21:27:06.126Z,12.78
2019-04-20T21:29:35.861Z,12.80
2019-04-20T21:32:08.163Z,12.78
2019-04-20T21:34:31.195Z,12.70
2019-04-20T21:37:07.370Z,12.63
2019-04-20T21:39:38.929Z,12.53
2019-04-20T21:42:09.453Z,12.57
2019-04-20T21:44:37.436Z,12.55
2019-04-20T21:47:03.435Z,12.51
2019-04-20T21:49:46.156Z,12.42
2019-04-20T21:52:10.600Z,12.39
2019-04-20T21:54:34.195Z,12.30
2019-04-20T21:57:05.765Z,12.30
2019-04-20T21:59:41.956Z,12.27
2019-04-20T22:02:12.894Z,12.21
2019-04-20T22:04:35.493Z,12.22
2019-04-20T22:07:04.996Z,12.19
2019-04-20T22:09:40.424Z,12.08
2019-04-20T22:12:07.662Z,11.98
2019-04-20T22:14:37.643Z,11.89
2019-04-20T22:17:07.836Z,11.86
2019-04-20T22:19:47.805Z,11.81
2019-04-20T22:22:22.790Z,11.73
2019-04-20T22:24:57.765Z,11.62
2019-04-20T22:27:20.390Z,11.58
2019-04-20T22:29:44.045Z,11.58
2019-04-20T22:32:16.497Z,11.52
2019-04-20T22:34:47.504Z,11.47
2019-04-20T22:37:21.015Z,11.43
2019-04-20T22:39:52.070Z,11.39
2019-04-20T22:42:18.286Z,11.37
2019-04-20T22:44:54.937Z,11.41
2019-04-20T22:47:23.290Z,11.43
2019-04-20T22:50:11.894Z,11.42
2019-04-20T22:52:36.228Z,11.42
2019-04-20T22:55:12.745Z,11.40
2019-04-20T22:57:38.779Z,11.43
2019-04-20T23:00:02.161Z,11.43
2019-04-20T23:02:26.253Z,11.42
2019-04-20T23:04:54.911Z,11.42
2019-04-20T23:07:23.695Z,11.42
2019-04-20T23:09:56.482Z,11.35
2019-04-20T23:12:26.963Z,11.40
2019-04-20T23:14:54.808Z,11.33
2019-04-20T23:17:33.544Z,11.33
2019-04-20T23:20:01.427Z,11.32
2019-04-20T23:22:36.831Z,11.27
2019-04-20T23:24:59.473Z,11.29
2019-04-20T23:27:32.117Z,11.22
2019-04-20T23:30:05.932Z,11.20
2019-04-20T23:32:33.915Z,11.27
2019-04-20T23:35:08.295Z,11.17
2019-04-20T23:37:36.504Z,11.10
2019-04-20T23:40:08.163Z,11.03
2019-04-20T23:42:46.003Z,10.91
2019-04-20T23:45:31.478Z,10.81
2019-04-20T23:48:16.271Z,10.72
2019-04-20T23:50:57.993Z,10.65
2019-04-20T23:53:32.966Z,10.58
2019-04-20T23:55:46.013Z,10.54
2019-04-20T23:58:16.432Z,10.49
